Time;durP1;ratioP1;P1;durP2;ratioP2;P2;SDS_P1;SDS_P2;PMS_P1;PMS_P2;Temp;Humidity;BMP_temperature;BMP_pressure;BME280_temperature;BME280_humidity;BME280_pressure;Samples;Min_cycle;Max_cycle;Signal;HPM_P1;HPM_P2
2023/11/21 09:56:57;;;;;;;7.77;5.17;;;;;;;10.78;100.00;98596.59;5149155;27;20587;-86
2023/11/21 09:59:25;;;;;;;6.27;4.63;;;;;;;11.28;100.00;98575.53;5132263;27;38698;-87
2023/11/21 10:01:53;;;;;;;7.17;4.53;;;;;;;11.92;100.00;98594.88;5134402;27;40763;-87
2023/11/21 10:04:21;;;;;;;6.00;4.03;;;;;;;12.46;100.00;98601.47;5144959;27;42816;-85
2023/11/21 10:06:49;;;;;;;4.97;3.37;;;;;;;12.75;100.00;98579.81;5153523;27;43667;-86
2023/11/21 10:09:20;;;;;;;5.50;3.63;;;;;;;13.11;100.00;98603.59;5131615;27;39039;-85
2023/11/21 10:11:50;;;;;;;5.33;3.60;;;;;;;13.49;100.00;98616.63;5146229;27;42089;-88
2023/11/21 10:14:25;;;;;;;3.57;3.17;;;;;;;13.58;100.00;98599.13;5132279;27;43741;-87
2023/11/21 10:16:53;;;;;;;7.13;3.57;;;;;;;13.76;93.98;98618.09;5132376;27;40707;-85
2023/11/21 10:19:23;;;;;;;6.43;3.27;;;;;;;13.91;93.29;98625.72;5132319;27;39060;-86
2023/11/21 10:21:52;;;;;;;5.60;3.20;;;;;;;13.95;90.70;98615.66;5132553;27;41921;-86
2023/11/21 10:24:20;;;;;;;3.77;2.90;;;;;;;14.14;91.51;98615.03;5132048;27;43860;-86
2023/11/21 10:26:50;;;;;;;3.03;2.60;;;;;;;14.17;90.60;98614.78;5130937;27;41010;-89
2023/11/21 10:29:21;;;;;;;4.13;2.77;;;;;;;14.05;89.30;98578.50;5132654;27;40776;-86
2023/11/21 10:31:50;;;;;;;4.00;2.80;;;;;;;14.35;85.81;98623.91;5132041;27;40254;-90
2023/11/21 10:34:19;;;;;;;4.00;2.90;;;;;;;14.45;85.98;98619.59;5132384;27;41899;-86
2023/11/21 10:36:47;;;;;;;5.17;3.30;;;;;;;14.58;87.43;98619.44;5114271;27;42316;-88
2023/11/21 10:39:18;;;;;;;2.90;2.57;;;;;;;14.74;85.57;98634.00;5132473;27;40357;-89
2023/11/21 10:41:46;;;;;;;3.03;2.70;;;;;;;14.56;81.98;98611.56;5129948;27;40838;-86
2023/11/21 10:44:20;;;;;;;3.00;2.50;;;;;;;14.77;82.77;98630.25;5131301;27;42113;-86
2023/11/21 10:46:50;;;;;;;4.37;2.37;;;;;;;14.76;81.78;98617.03;5130316;27;42447;-86
2023/11/21 10:49:18;;;;;;;2.80;2.57;;;;;;;14.84;80.40;98623.41;5131545;27;38836;-86
2023/11/21 10:51:48;;;;;;;4.27;2.37;;;;;;;15.01;80.46;98644.19;5130470;27;41061;-85
2023/11/21 10:54:18;;;;;;;4.07;2.53;;;;;;;14.94;79.64;98643.03;5148170;27;42642;-88
2023/11/21 10:56:48;;;;;;;3.53;2.30;;;;;;;14.96;78.54;98641.06;5129615;27;42521;-89
2023/11/21 10:59:16;;;;;;;2.87;2.60;;;;;;;15.05;80.02;98639.44;5130926;27;38947;-87
2023/11/21 11:01:46;;;;;;;2.57;2.03;;;;;;;15.08;80.13;98624.00;5130446;27;40750;-89
2023/11/21 11:04:16;;;;;;;4.87;2.20;;;;;;;15.22;80.46;98630.84;5130910;27;41959;-85
2023/11/21 11:06:44;;;;;;;2.80;1.90;;;;;;;15.24;80.20;98623.56;5125222;27;41494;-89
2023/11/21 11:09:16;;;;;;;2.43;1.90;;;;;;;15.24;77.41;98628.06;5117003;27;38710;-89
2023/11/21 11:11:45;;;;;;;2.43;2.23;;;;;;;15.31;75.02;98645.25;5117160;27;40507;-87
2023/11/21 11:14:13;;;;;;;3.57;1.83;;;;;;;15.31;76.62;98640.75;5117811;27;43447;-86
2023/11/21 11:16:42;;;;;;;3.77;1.90;;;;;;;15.45;75.50;98659.09;5117147;27;42128;-87
2023/11/21 11:19:11;;;;;;;2.70;1.93;;;;;;;15.32;74.67;98638.94;5117488;27;40349;-85
2023/11/21 11:21:53;;;;;;;2.77;1.80;;;;;;;15.33;73.97;98648.63;5117265;27;41115;-87
2023/11/21 11:24:45;;;;;;;2.50;1.97;;;;;;;15.38;73.43;98663.25;5117526;27;43336;-86
2023/11/21 11:27:25;;;;;;;3.73;2.10;;;;;;;15.29;74.41;98642.72;5117454;27;41397;-87
2023/11/21 11:30:05;;;;;;;3.17;2.10;;;;;;;15.26;73.26;98642.97;5117554;27;39084;-89
2023/11/21 11:32:44;;;;;;;1.83;1.70;;;;;;;15.36;74.38;98643.88;5116867;27;40775;-86
2023/11/21 11:35:18;;;;;;;2.80;1.60;;;;;;;15.49;74.00;98649.00;5117549;27;43814;-87
2023/11/21 11:37:48;;;;;;;3.73;1.57;;;;;;;15.49;73.29;98629.47;5117052;27;41153;-87
2023/11/21 11:40:16;;;;;;;3.23;1.87;;;;;;;15.69;73.25;98650.00;5117172;27;38557;-85
2023/11/21 11:42:58;;;;;;;3.23;1.43;;;;;;;15.70;74.00;98630.34;5115885;27;40915;-86
2023/11/21 11:45:33;;;;;;;1.97;1.70;;;;;;;15.90;73.19;98664.16;5116087;27;41722;-87
2023/11/21 11:48:01;;;;;;;2.20;1.97;;;;;;;15.92;71.78;98659.53;5115599;27;41064;-87
2023/11/21 11:50:29;;;;;;;1.80;1.67;;;;;;;16.04;72.21;98655.78;5115811;27;39179;-85
2023/11/21 11:53:14;;;;;;;2.30;1.77;;;;;;;16.20;69.36;98692.66;5115825;27;41020;-88
2023/11/21 11:55:41;;;;;;;2.07;1.47;;;;;;;16.12;69.05;98676.47;5114582;27;41965;-89
2023/11/21 11:58:09;;;;;;;3.40;1.80;;;;;;;16.12;69.88;98674.63;5115099;27;41676;-85
2023/11/21 12:00:39;;;;;;;2.87;1.80;;;;;;;16.04;67.45;98677.16;5115856;27;38934;-89
2023/11/21 12:03:10;;;;;;;1.20;1.10;;;;;;;16.11;68.61;98672.09;5115533;27;41210;-88
2023/11/21 12:05:40;;;;;;;2.27;1.80;;;;;;;16.19;69.84;98674.97;5114846;27;41405;-88
2023/11/21 12:08:09;;;;;;;2.67;1.57;;;;;;;16.35;69.86;98671.75;5114976;27;41319;-90
2023/11/21 12:10:38;;;;;;;2.03;1.63;;;;;;;16.50;69.86;98665.03;5115100;27;38892;-89
2023/11/21 12:13:09;;;;;;;4.13;1.67;;;;;;;16.77;66.22;98681.31;5116430;27;41528;-90
2023/11/21 12:15:38;;;;;;;2.90;1.40;;;;;;;17.03;67.08;98680.75;5116122;27;41799;-85
2023/11/21 12:18:06;;;;;;;1.40;1.17;;;;;;;17.26;61.50;98722.31;5115219;27;40881;-87
2023/11/21 12:20:38;;;;;;;1.80;1.30;;;;;;;17.49;61.75;98704.94;5133127;27;39894;-87
2023/11/21 12:23:10;;;;;;;1.33;1.20;;;;;;;18.01;62.66;98688.50;5116127;27;41130;-87
2023/11/21 12:25:39;;;;;;;1.47;1.30;;;;;;;21.04;57.01;98721.00;5115955;27;41610;-87
2023/11/21 12:28:07;;;;;;;1.73;1.40;;;;;;;23.38;49.67;98757.63;5115603;27;42637;-88
2023/11/21 12:30:37;;;;;;;3.10;1.50;;;;;;;24.57;47.53;98747.78;5116528;27;38811;-88
2023/11/21 12:33:08;;;;;;;1.93;0.90;;;;;;;27.11;43.09;98780.38;5114928;27;42159;-89
2023/11/21 12:35:36;;;;;;;1.08;0.93;;;;;;;28.87;40.47;98798.97;5115834;27;42598;-89
2023/11/21 12:38:05;;;;;;;1.88;1.20;;;;;;;29.72;37.10;98798.81;5113078;27;42192;-88
2023/11/21 12:40:34;;;;;;;1.10;0.90;;;;;;;29.72;36.12;98801.53;5114435;27;39174;-89
2023/11/21 12:43:04;;;;;;;2.00;1.40;;;;;;;28.74;33.38;98836.28;5112560;27;42592;-87
2023/11/21 12:45:32;;;;;;;3.53;1.27;;;;;;;27.25;34.85;98813.91;5098506;27;43501;-86
2023/11/21 12:48:03;;;;;;;3.93;1.23;;;;;;;26.19;37.00;98785.22;5113877;27;41178;-87
2023/11/21 12:50:33;;;;;;;3.27;1.20;;;;;;;25.40;38.26;98777.16;5114862;27;40064;-88
2023/11/21 12:53:04;;;;;;;3.97;1.27;;;;;;;25.15;39.38;98780.41;5117062;27;40889;-85
2023/11/21 12:55:37;;;;;;;2.50;1.37;;;;;;;24.24;41.70;98781.63;5119036;27;42203;-84
2023/11/21 12:58:08;;;;;;;3.27;1.23;;;;;;;23.33;40.61;98792.47;5132725;27;41916;-86
2023/11/21 13:00:38;;;;;;;1.87;1.27;;;;;;;22.40;42.45;98749.97;5121916;27;38767;-87
2023/11/21 13:03:07;;;;;;;1.03;0.93;;;;;;;21.88;43.72;98756.81;5096366;27;40668;-85
2023/11/21 13:05:38;;;;;;;2.43;1.17;;;;;;;21.16;44.05;98735.00;5114901;27;41595;-87
2023/11/21 13:08:09;;;;;;;2.57;0.97;;;;;;;20.92;45.27;98765.41;5111103;27;41290;-89
2023/11/21 13:10:42;;;;;;;2.03;0.93;;;;;;;20.61;45.88;98759.75;5114876;27;39201;-89
2023/11/21 13:13:16;;;;;;;1.20;1.00;;;;;;;20.10;46.80;98725.66;5115113;27;41054;-89
2023/11/21 13:15:49;;;;;;;1.27;0.97;;;;;;;19.90;46.83;98741.19;5116232;27;42072;-89
2023/11/21 13:18:17;;;;;;;1.30;1.07;;;;;;;19.61;48.40;98736.09;5114264;27;42421;-88
2023/11/21 13:20:45;;;;;;;1.43;1.03;;;;;;;19.37;46.86;98758.19;5132275;27;40932;-86
2023/11/21 13:23:16;;;;;;;2.30;0.80;;;;;;;19.05;47.58;98759.69;5115253;27;40336;-88
2023/11/21 13:25:49;;;;;;;1.03;1.00;;;;;;;18.30;48.67;98668.59;5115495;27;42042;-87
2023/11/21 13:28:18;;;;;;;1.00;0.90;;;;;;;18.12;49.28;98678.44;5115344;27;41128;-85
2023/11/21 13:30:46;;;;;;;2.00;0.70;;;;;;;18.20;50.26;98725.94;5114628;27;39893;-92
2023/11/21 13:33:26;;;;;;;1.60;0.80;;;;;;;18.14;51.11;98746.16;5115407;27;40775;-89
2023/11/21 13:35:56;;;;;;;2.20;0.80;;;;;;;17.74;51.58;98711.56;5114777;27;42407;-91
2023/11/21 13:38:24;;;;;;;0.83;0.60;;;;;;;17.80;52.08;98744.97;5114881;27;41304;-91
2023/11/21 13:40:54;;;;;;;3.73;0.83;;;;;;;17.53;52.74;98718.91;5113715;27;38685;-89
2023/11/21 13:43:25;;;;;;;1.30;1.00;;;;;;;17.49;53.05;98742.44;5113444;27;41145;-87
2023/11/21 13:46:03;;;;;;;2.30;0.90;;;;;;;17.27;53.48;98726.66;5114650;27;43520;-89
2023/11/21 13:48:40;;;;;;;1.87;0.80;;;;;;;17.08;53.77;98722.13;5113833;27;41598;-87
2023/11/21 13:51:17;;;;;;;3.03;0.90;;;;;;;16.93;54.69;98730.75;5114292;27;38972;-85
2023/11/21 13:53:47;;;;;;;2.57;0.93;;;;;;;16.71;54.96;98724.63;5113803;27;40710;-87
2023/11/21 13:56:22;;;;;;;1.53;1.07;;;;;;;16.54;55.31;98744.00;5112811;27;41935;-91
2023/11/21 13:58:51;;;;;;;4.87;0.97;;;;;;;16.24;55.85;98730.66;5114150;27;41847;-86
2023/11/21 14:01:42;;;;;;;1.30;0.97;;;;;;;15.56;56.27;98666.22;5113913;27;39258;-87
2023/11/21 14:04:18;;;;;;;2.47;1.00;;;;;;;15.65;57.46;98734.00;5130686;27;41825;-87
2023/11/21 14:06:49;;;;;;;2.33;0.90;;;;;;;15.37;58.09;98741.63;5113253;27;42065;-88
2023/11/21 14:09:22;;;;;;;1.17;0.70;;;;;;;15.10;58.85;98741.25;5113944;27;42311;-89
2023/11/21 14:11:53;;;;;;;1.33;0.90;;;;;;;14.77;60.20;98725.38;5113185;27;39379;-89
2023/11/21 14:14:21;;;;;;;1.30;1.07;;;;;;;14.65;60.80;98744.06;5114920;27;40105;-87
2023/11/21 14:16:49;;;;;;;1.07;0.90;;;;;;;14.18;61.98;98683.06;5131101;27;42658;-89
2023/11/21 14:19:17;;;;;;;1.10;0.80;;;;;;;14.35;62.57;98723.34;5114808;27;41645;-88
2023/11/21 14:21:45;;;;;;;2.27;0.97;;;;;;;14.22;63.29;98708.44;5114251;27;38906;-91
2023/11/21 14:24:13;;;;;;;1.90;1.00;;;;;;;14.23;63.63;98720.81;5114459;27;42203;-86
2023/11/21 14:26:42;;;;;;;1.77;1.27;;;;;;;14.11;63.89;98716.44;5113929;27;41964;-86
2023/11/21 14:29:14;;;;;;;1.27;1.10;;;;;;;14.01;64.40;98711.84;5131510;27;43159;-84
2023/11/21 14:31:42;;;;;;;1.87;1.07;;;;;;;14.06;64.60;98734.63;5114472;27;41487;-84
2023/11/21 14:34:12;;;;;;;1.43;1.30;;;;;;;13.97;65.05;98746.84;5113903;27;40690;-86
2023/11/21 14:36:40;;;;;;;2.23;1.13;;;;;;;13.77;66.16;98721.78;5119539;27;41614;-81
2023/11/21 14:39:21;;;;;;;1.63;1.20;;;;;;;13.73;66.04;98733.59;5122900;27;41918;-82
2023/11/21 14:41:49;;;;;;;2.73;1.47;;;;;;;13.53;66.26;98721.00;5127044;27;39653;-81
2023/11/21 14:44:18;;;;;;;2.20;1.90;;;;;;;13.64;67.60;98755.63;5129606;27;41963;-83
2023/11/21 14:46:49;;;;;;;3.57;2.17;;;;;;;13.46;67.68;98741.06;5128839;27;42897;-83
2023/11/21 14:49:20;;;;;;;2.37;1.63;;;;;;;13.47;68.60;98753.41;5130363;27;41773;-81
2023/11/21 14:52:00;;;;;;;2.77;1.80;;;;;;;13.33;69.12;98745.63;5139314;27;40504;-91
2023/11/21 14:54:39;;;;;;;2.30;1.67;;;;;;;13.20;69.28;98751.00;5119318;27;40959;-87
2023/11/21 14:57:11;;;;;;;2.53;1.77;;;;;;;13.07;70.03;98748.38;5109400;28;41305;-85
2023/11/21 14:59:43;;;;;;;2.13;1.20;;;;;;;13.09;70.04;98775.72;5097642;28;41714;-83
2023/11/21 15:02:20;;;;;;;1.50;1.40;;;;;;;12.94;70.08;98764.41;5102992;27;39234;-87
2023/11/21 15:04:47;;;;;;;2.80;1.50;;;;;;;12.94;70.12;98776.84;5116561;27;40826;-82
2023/11/21 15:07:15;;;;;;;1.77;1.40;;;;;;;12.90;70.76;98772.69;5116032;27;43117;-86
2023/11/21 15:09:42;;;;;;;2.33;1.80;;;;;;;12.77;71.54;98753.28;5116347;27;40861;-84
2023/11/21 15:12:24;;;;;;;2.53;1.70;;;;;;;12.84;71.09;98775.81;5134028;27;40816;-86
2023/11/21 15:14:55;;;;;;;5.50;1.47;;;;;;;12.72;71.32;98766.94;5117621;27;41160;-88
2023/11/21 15:17:26;;;;;;;2.40;1.50;;;;;;;12.68;71.67;98776.06;5116645;27;41820;-86
2023/11/21 15:19:54;;;;;;;1.83;1.40;;;;;;;12.66;72.08;98775.31;5135323;27;41929;-90
2023/11/21 15:22:22;;;;;;;2.17;1.70;;;;;;;12.59;72.22;98772.28;5117032;27;38634;-86
2023/11/21 15:24:53;;;;;;;4.30;1.73;;;;;;;12.68;72.65;98793.81;5116994;27;41184;-87
2023/11/21 15:27:21;;;;;;;3.43;2.30;;;;;;;12.54;73.19;98778.88;5117577;27;42772;-83
2023/11/21 15:29:49;;;;;;;4.70;3.53;;;;;;;12.35;73.80;98758.09;5117844;27;42186;-84
2023/11/21 15:32:18;;;;;;;9.37;6.80;;;;;;;12.53;73.90;98798.41;5134194;27;40015;-84
2023/11/21 15:34:46;;;;;;;6.20;3.87;;;;;;;12.50;74.23;98799.47;5120113;27;40675;-81
2023/11/21 15:37:14;;;;;;;3.63;3.27;;;;;;;12.45;74.05;98800.78;5136547;27;43887;-83
2023/11/21 15:39:42;;;;;;;3.00;2.70;;;;;;;12.38;74.10;98795.03;5103268;28;43347;-90
2023/11/21 15:42:10;;;;;;;4.13;2.47;;;;;;;12.34;73.88;98793.59;5096440;28;38885;-85
2023/11/21 15:44:38;;;;;;;2.80;2.23;;;;;;;12.30;74.31;98796.56;5136101;27;41617;-81
2023/11/21 15:47:08;;;;;;;7.23;2.23;;;;;;;12.29;74.30;98806.31;5127974;27;41127;-81
2023/11/21 15:49:37;;;;;;;2.80;2.50;;;;;;;12.34;73.96;98825.44;5138468;27;41452;-82
2023/11/21 15:52:06;;;;;;;2.73;2.20;;;;;;;12.30;74.53;98823.94;5126295;27;39115;-82
2023/11/21 15:54:34;;;;;;;3.53;2.43;;;;;;;12.15;74.74;98807.28;5115319;27;42033;-84
2023/11/21 15:57:03;;;;;;;5.73;2.63;;;;;;;12.04;75.64;98801.03;5115840;27;42515;-87
2023/11/21 15:59:32;;;;;;;2.77;2.20;;;;;;;12.15;76.04;98827.66;5115365;27;41375;-80
2023/11/21 16:02:00;;;;;;;4.67;2.87;;;;;;;12.08;76.15;98824.59;5133186;27;39169;-82
2023/11/21 16:04:27;;;;;;;6.43;2.97;;;;;;;12.03;75.81;98833.81;5132466;27;40942;-80
2023/11/21 16:06:58;;;;;;;3.37;2.40;;;;;;;11.97;75.86;98831.59;5110992;27;42595;-82
2023/11/21 16:09:30;;;;;;;6.03;2.90;;;;;;;11.50;76.95;98775.47;5118233;27;41613;-81
2023/11/21 16:12:01;;;;;;;5.23;2.87;;;;;;;11.87;77.38;98837.53;5133571;27;38765;-82
2023/11/21 16:14:34;;;;;;;4.17;3.27;;;;;;;11.84;77.57;98842.22;5117512;27;41812;-84
2023/11/21 16:17:02;;;;;;;6.33;3.70;;;;;;;11.77;77.04;98839.09;5116331;27;45636;-85
2023/11/21 16:19:30;;;;;;;5.07;2.77;;;;;;;11.73;76.82;98829.63;5117055;27;41188;-86
2023/11/21 16:21:59;;;;;;;3.43;2.60;;;;;;;11.80;76.74;98844.22;5116878;27;38811;-87
2023/11/21 16:24:28;;;;;;;6.77;2.73;;;;;;;11.67;76.76;98824.72;5116363;27;40956;-87
2023/11/21 16:26:56;;;;;;;4.43;3.07;;;;;;;11.67;76.89;98838.00;5116352;27;41887;-85
2023/11/21 16:29:24;;;;;;;3.47;2.73;;;;;;;11.75;76.78;98851.63;5116670;27;41444;-85
2023/11/21 16:31:54;;;;;;;2.93;2.60;;;;;;;11.67;76.38;98851.25;5116905;27;38869;-84
2023/11/21 16:34:22;;;;;;;3.43;2.43;;;;;;;11.63;76.77;98848.91;5116675;27;40989;-88
2023/11/21 16:36:50;;;;;;;4.77;2.63;;;;;;;11.71;76.75;98870.47;5115410;27;41720;-87
